sensor_id;sensor_type;location;lat;lon;timestamp;temperature;humidity
8563;DHT22;16392;52.508;13.468;2023-11-21T00:00:00;8.10;99.90
8563;DHT22;16392;52.508;13.468;2023-11-21T00:02:28;8.00;99.90
8563;DHT22;16392;52.508;13.468;2023-11-21T00:04:55;8.00;99.90
8563;DHT22;16392;52.508;13.468;2023-11-21T00:07:22;7.90;99.90
8563;DHT22;16392;52.508;13.468;2023-11-21T00:09:48;7.80;99.90
8563;DHT22;16392;52.508;13.468;2023-11-21T00:12:15;7.80;99.90
8563;DHT22;16392;52.508;13.468;2023-11-21T00:14:42;7.80;99.90
8563;DHT22;16392;52.508;13.468;2023-11-21T00:17:09;7.80;99.90
8563;DHT22;16392;52.508;13.468;2023-11-21T00:19:36;7.70;99.90
8563;DHT22;16392;52.508;13.468;2023-11-21T00:22:03;7.60;99.90
8563;DHT22;16392;52.508;13.468;2023-11-21T00:24:31;7.60;99.90
8563;DHT22;16392;52.508;13.468;2023-11-21T00:26:58;7.60;99.90
8563;DHT22;16392;52.508;13.468;2023-11-21T00:29:25;7.60;99.90
8563;DHT22;16392;52.508;13.468;2023-11-21T00:31:51;7.60;99.90
8563;DHT22;16392;52.508;13.468;2023-11-21T00:34:18;7.50;99.90
8563;DHT22;16392;52.508;13.468;2023-11-21T00:36:46;7.50;99.90
8563;DHT22;16392;52.508;13.468;2023-11-21T00:39:13;7.50;99.90
8563;DHT22;16392;52.508;13.468;2023-11-21T00:41:39;7.40;99.90
8563;DHT22;16392;52.508;13.468;2023-11-21T00:44:06;7.40;99.90
8563;DHT22;16392;52.508;13.468;2023-11-21T00:46:32;7.40;99.90
8563;DHT22;16392;52.508;13.468;2023-11-21T00:48:59;7.40;99.90
8563;DHT22;16392;52.508;13.468;2023-11-21T00:51:26;7.20;99.90
8563;DHT22;16392;52.508;13.468;2023-11-21T00:53:54;7.20;99.90
8563;DHT22;16392;52.508;13.468;2023-11-21T00:56:20;7.10;99.90
8563;DHT22;16392;52.508;13.468;2023-11-21T00:58:47;7.10;99.90
8563;DHT22;16392;52.508;13.468;2023-11-21T01:01:15;7.00;99.90
8563;DHT22;16392;52.508;13.468;2023-11-21T01:03:42;7.10;99.90
8563;DHT22;16392;52.508;13.468;2023-11-21T01:06:09;7.10;99.90
8563;DHT22;16392;52.508;13.468;2023-11-21T01:08:35;7.00;99.90
8563;DHT22;16392;52.508;13.468;2023-11-21T01:11:04;6.90;99.90
8563;DHT22;16392;52.508;13.468;2023-11-21T01:13:33;6.90;99.90
8563;DHT22;16392;52.508;13.468;2023-11-21T01:16:00;6.90;99.90
8563;DHT22;16392;52.508;13.468;2023-11-21T01:18:27;6.90;99.90
8563;DHT22;16392;52.508;13.468;2023-11-21T01:20:54;6.90;99.90
8563;DHT22;16392;52.508;13.468;2023-11-21T01:23:21;6.90;99.90
8563;DHT22;16392;52.508;13.468;2023-11-21T01:25:48;6.80;99.90
8563;DHT22;16392;52.508;13.468;2023-11-21T01:28:18;6.80;99.90
8563;DHT22;16392;52.508;13.468;2023-11-21T01:30:45;6.90;99.90
8563;DHT22;16392;52.508;13.468;2023-11-21T01:33:12;6.80;99.90
8563;DHT22;16392;52.508;13.468;2023-11-21T01:35:38;6.90;99.90
8563;DHT22;16392;52.508;13.468;2023-11-21T01:38:05;6.80;99.90
8563;DHT22;16392;52.508;13.468;2023-11-21T01:40:33;6.80;99.90
8563;DHT22;16392;52.508;13.468;2023-11-21T01:43:00;6.80;99.90
8563;DHT22;16392;52.508;13.468;2023-11-21T01:45:29;6.80;99.90
8563;DHT22;16392;52.508;13.468;2023-11-21T01:47:56;6.80;99.90
8563;DHT22;16392;52.508;13.468;2023-11-21T01:50:24;6.70;99.90
8563;DHT22;16392;52.508;13.468;2023-11-21T01:52:52;6.60;99.90
8563;DHT22;16392;52.508;13.468;2023-11-21T01:55:19;6.60;99.90
8563;DHT22;16392;52.508;13.468;2023-11-21T01:57:46;6.50;99.90
8563;DHT22;16392;52.508;13.468;2023-11-21T02:00:13;6.50;99.90
8563;DHT22;16392;52.508;13.468;2023-11-21T02:02:46;6.50;99.90
8563;DHT22;16392;52.508;13.468;2023-11-21T02:05:16;6.50;99.90
8563;DHT22;16392;52.508;13.468;2023-11-21T02:07:44;6.50;99.90
8563;DHT22;16392;52.508;13.468;2023-11-21T02:10:13;6.50;99.90
8563;DHT22;16392;52.508;13.468;2023-11-21T02:12:41;6.40;99.90
8563;DHT22;16392;52.508;13.468;2023-11-21T02:15:09;6.40;99.90
8563;DHT22;16392;52.508;13.468;2023-11-21T02:17:41;6.40;99.90
8563;DHT22;16392;52.508;13.468;2023-11-21T02:20:11;6.40;99.90
8563;DHT22;16392;52.508;13.468;2023-11-21T02:22:41;6.40;99.90
8563;DHT22;16392;52.508;13.468;2023-11-21T02:25:10;6.30;99.90
8563;DHT22;16392;52.508;13.468;2023-11-21T02:27:36;6.30;99.90
8563;DHT22;16392;52.508;13.468;2023-11-21T02:30:04;6.40;99.90
8563;DHT22;16392;52.508;13.468;2023-11-21T02:32:30;6.30;99.90
8563;DHT22;16392;52.508;13.468;2023-11-21T02:34:57;6.40;99.90
8563;DHT22;16392;52.508;13.468;2023-11-21T02:37:26;6.40;99.90
8563;DHT22;16392;52.508;13.468;2023-11-21T02:39:53;6.30;99.90
8563;DHT22;16392;52.508;13.468;2023-11-21T02:42:20;6.30;99.90
8563;DHT22;16392;52.508;13.468;2023-11-21T02:44:47;6.30;99.90
8563;DHT22;16392;52.508;13.468;2023-11-21T02:47:14;6.30;99.90
8563;DHT22;16392;52.508;13.468;2023-11-21T02:49:42;6.30;99.90
8563;DHT22;16392;52.508;13.468;2023-11-21T02:52:09;6.30;99.90
8563;DHT22;16392;52.508;13.468;2023-11-21T02:54:35;6.30;99.90
8563;DHT22;16392;52.508;13.468;2023-11-21T02:57:02;6.30;99.90
8563;DHT22;16392;52.508;13.468;2023-11-21T02:59:30;6.30;99.90
8563;DHT22;16392;52.508;13.468;2023-11-21T03:01:57;6.20;99.90
8563;DHT22;16392;52.508;13.468;2023-11-21T03:04:23;6.20;99.90
8563;DHT22;16392;52.508;13.468;2023-11-21T03:06:51;6.20;99.90
8563;DHT22;16392;52.508;13.468;2023-11-21T03:09:18;6.20;99.90
8563;DHT22;16392;52.508;13.468;2023-11-21T03:11:45;6.20;99.90
8563;DHT22;16392;52.508;13.468;2023-11-21T03:14:11;6.20;99.90
8563;DHT22;16392;52.508;13.468;2023-11-21T03:16:39;6.20;99.90
8563;DHT22;16392;52.508;13.468;2023-11-21T03:19:06;6.20;99.90
8563;DHT22;16392;52.508;13.468;2023-11-21T03:21:33;6.20;99.90
8563;DHT22;16392;52.508;13.468;2023-11-21T03:24:00;6.20;99.90
8563;DHT22;16392;52.508;13.468;2023-11-21T03:26:26;6.20;99.90
8563;DHT22;16392;52.508;13.468;2023-11-21T03:28:53;6.20;99.90
8563;DHT22;16392;52.508;13.468;2023-11-21T03:31:20;6.20;99.90
8563;DHT22;16392;52.508;13.468;2023-11-21T03:33:48;6.20;99.90
8563;DHT22;16392;52.508;13.468;2023-11-21T03:36:14;6.20;99.90
8563;DHT22;16392;52.508;13.468;2023-11-21T03:38:41;6.20;99.90
8563;DHT22;16392;52.508;13.468;2023-11-21T03:41:08;6.10;99.90
8563;DHT22;16392;52.508;13.468;2023-11-21T03:43:36;6.10;99.90
8563;DHT22;16392;52.508;13.468;2023-11-21T03:46:02;6.10;99.90
8563;DHT22;16392;52.508;13.468;2023-11-21T03:48:29;6.10;99.90
8563;DHT22;16392;52.508;13.468;2023-11-21T03:50:57;6.10;99.90
8563;DHT22;16392;52.508;13.468;2023-11-21T03:53:23;6.10;99.90
8563;DHT22;16392;52.508;13.468;2023-11-21T03:55:50;6.10;99.90
8563;DHT22;16392;52.508;13.468;2023-11-21T03:58:17;6.10;99.90
8563;DHT22;16392;52.508;13.468;2023-11-21T04:00:43;6.10;99.90
8563;DHT22;16392;52.508;13.468;2023-11-21T04:03:10;6.10;99.90
8563;DHT22;16392;52.508;13.468;2023-11-21T04:05:37;6.10;99.90
8563;DHT22;16392;52.508;13.468;2023-11-21T04:08:05;6.10;99.90
8563;DHT22;16392;52.508;13.468;2023-11-21T04:10:31;6.10;99.90
8563;DHT22;16392;52.508;13.468;2023-11-21T04:12:58;6.10;99.90
8563;DHT22;16392;52.508;13.468;2023-11-21T04:15:25;6.10;99.90
8563;DHT22;16392;52.508;13.468;2023-11-21T04:17:52;6.10;99.90
8563;DHT22;16392;52.508;13.468;2023-11-21T04:20:19;6.10;99.90
8563;DHT22;16392;52.508;13.468;2023-11-21T04:22:46;6.00;99.90
8563;DHT22;16392;52.508;13.468;2023-11-21T04:25:15;6.00;99.90
8563;DHT22;16392;52.508;13.468;2023-11-21T04:27:43;6.00;99.90
8563;DHT22;16392;52.508;13.468;2023-11-21T04:30:10;6.00;99.90
8563;DHT22;16392;52.508;13.468;2023-11-21T04:32:37;6.00;99.90
8563;DHT22;16392;52.508;13.468;2023-11-21T04:35:05;6.00;99.90
8563;DHT22;16392;52.508;13.468;2023-11-21T04:37:32;6.00;99.90
8563;DHT22;16392;52.508;13.468;2023-11-21T04:39:58;6.00;99.90
8563;DHT22;16392;52.508;13.468;2023-11-21T04:42:26;5.90;99.90
8563;DHT22;16392;52.508;13.468;2023-11-21T04:44:54;6.00;99.90
8563;DHT22;16392;52.508;13.468;2023-11-21T04:47:21;6.00;99.90
8563;DHT22;16392;52.508;13.468;2023-11-21T04:49:48;5.90;99.90
8563;DHT22;16392;52.508;13.468;2023-11-21T04:52:14;5.90;99.90
8563;DHT22;16392;52.508;13.468;2023-11-21T04:54:41;5.90;99.90
8563;DHT22;16392;52.508;13.468;2023-11-21T04:57:08;5.80;99.90
8563;DHT22;16392;52.508;13.468;2023-11-21T04:59:36;5.90;99.90
8563;DHT22;16392;52.508;13.468;2023-11-21T05:02:03;5.90;99.90
8563;DHT22;16392;52.508;13.468;2023-11-21T05:04:30;5.90;99.90
8563;DHT22;16392;52.508;13.468;2023-11-21T05:06:57;5.90;99.90
8563;DHT22;16392;52.508;13.468;2023-11-21T05:09:24;5.90;99.90
8563;DHT22;16392;52.508;13.468;2023-11-21T05:11:51;5.90;99.90
8563;DHT22;16392;52.508;13.468;2023-11-21T05:14:20;5.90;99.90
8563;DHT22;16392;52.508;13.468;2023-11-21T05:16:48;5.90;99.90
8563;DHT22;16392;52.508;13.468;2023-11-21T05:19:16;5.80;99.90
8563;DHT22;16392;52.508;13.468;2023-11-21T05:21:43;5.80;99.90
8563;DHT22;16392;52.508;13.468;2023-11-21T05:24:10;5.80;99.90
8563;DHT22;16392;52.508;13.468;2023-11-21T05:26:36;5.80;99.90
8563;DHT22;16392;52.508;13.468;2023-11-21T05:29:05;5.80;99.90
8563;DHT22;16392;52.508;13.468;2023-11-21T05:31:32;5.80;99.90
8563;DHT22;16392;52.508;13.468;2023-11-21T05:34:00;5.80;99.90
8563;DHT22;16392;52.508;13.468;2023-11-21T05:36:26;5.80;99.90
8563;DHT22;16392;52.508;13.468;2023-11-21T05:38:53;5.80;99.90
8563;DHT22;16392;52.508;13.468;2023-11-21T05:41:20;5.80;99.90
8563;DHT22;16392;52.508;13.468;2023-11-21T05:43:46;5.80;99.90
8563;DHT22;16392;52.508;13.468;2023-11-21T05:46:13;5.80;99.90
8563;DHT22;16392;52.508;13.468;2023-11-21T05:48:40;5.80;99.90
8563;DHT22;16392;52.508;13.468;2023-11-21T05:51:08;5.80;99.90
8563;DHT22;16392;52.508;13.468;2023-11-21T05:53:37;5.80;99.90
8563;DHT22;16392;52.508;13.468;2023-11-21T05:56:04;5.80;99.90
8563;DHT22;16392;52.508;13.468;2023-11-21T05:58:31;5.80;99.90
8563;DHT22;16392;52.508;13.468;2023-11-21T06:00:58;5.80;99.90
8563;DHT22;16392;52.508;13.468;2023-11-21T06:03:24;5.80;99.90
8563;DHT22;16392;52.508;13.468;2023-11-21T06:05:51;5.80;99.90
8563;DHT22;16392;52.508;13.468;2023-11-21T06:08:19;5.80;99.90
8563;DHT22;16392;52.508;13.468;2023-11-21T06:10:46;5.70;99.90
8563;DHT22;16392;52.508;13.468;2023-11-21T06:13:14;5.70;99.90
8563;DHT22;16392;52.508;13.468;2023-11-21T06:15:41;5.70;99.90
8563;DHT22;16392;52.508;13.468;2023-11-21T06:18:07;5.80;99.90
8563;DHT22;16392;52.508;13.468;2023-11-21T06:20:35;5.80;99.90
8563;DHT22;16392;52.508;13.468;2023-11-21T06:23:03;5.80;99.90
8563;DHT22;16392;52.508;13.468;2023-11-21T06:25:32;5.70;99.90
8563;DHT22;16392;52.508;13.468;2023-11-21T06:28:01;5.60;99.90
8563;DHT22;16392;52.508;13.468;2023-11-21T06:30:28;5.70;99.90
8563;DHT22;16392;52.508;13.468;2023-11-21T06:32:55;5.70;99.90
8563;DHT22;16392;52.508;13.468;2023-11-21T06:35:22;5.60;99.90
8563;DHT22;16392;52.508;13.468;2023-11-21T06:37:48;5.60;99.90
8563;DHT22;16392;52.508;13.468;2023-11-21T06:40:17;5.60;99.90
8563;DHT22;16392;52.508;13.468;2023-11-21T06:42:46;5.60;99.90
8563;DHT22;16392;52.508;13.468;2023-11-21T06:45:13;5.60;99.90
8563;DHT22;16392;52.508;13.468;2023-11-21T06:47:40;5.60;99.90
8563;DHT22;16392;52.508;13.468;2023-11-21T06:50:07;5.60;99.90
8563;DHT22;16392;52.508;13.468;2023-11-21T06:52:34;5.60;99.90
8563;DHT22;16392;52.508;13.468;2023-11-21T06:55:01;5.60;99.90
8563;DHT22;16392;52.508;13.468;2023-11-21T06:57:28;5.60;99.90
8563;DHT22;16392;52.508;13.468;2023-11-21T06:59:56;5.50;99.90
8563;DHT22;16392;52.508;13.468;2023-11-21T07:02:23;5.60;99.90
8563;DHT22;16392;52.508;13.468;2023-11-21T07:04:50;5.60;99.90
8563;DHT22;16392;52.508;13.468;2023-11-21T07:07:17;5.60;99.90
8563;DHT22;16392;52.508;13.468;2023-11-21T07:09:44;5.60;99.90
8563;DHT22;16392;52.508;13.468;2023-11-21T07:12:11;5.60;99.90
8563;DHT22;16392;52.508;13.468;2023-11-21T07:14:37;5.60;99.90
8563;DHT22;16392;52.508;13.468;2023-11-21T07:17:06;5.60;99.90
8563;DHT22;16392;52.508;13.468;2023-11-21T07:19:33;5.50;99.90
8563;DHT22;16392;52.508;13.468;2023-11-21T07:21:59;5.50;99.90
8563;DHT22;16392;52.508;13.468;2023-11-21T07:24:26;5.60;99.90
8563;DHT22;16392;52.508;13.468;2023-11-21T07:26:55;5.50;99.90
8563;DHT22;16392;52.508;13.468;2023-11-21T07:29:23;5.60;99.90
8563;DHT22;16392;52.508;13.468;2023-11-21T07:31:51;5.60;99.90
8563;DHT22;16392;52.508;13.468;2023-11-21T07:34:19;5.60;99.90
8563;DHT22;16392;52.508;13.468;2023-11-21T07:36:46;5.50;99.90
8563;DHT22;16392;52.508;13.468;2023-11-21T07:39:12;5.50;99.90
8563;DHT22;16392;52.508;13.468;2023-11-21T07:41:41;5.50;99.90
8563;DHT22;16392;52.508;13.468;2023-11-21T07:44:15;5.50;99.90
8563;DHT22;16392;52.508;13.468;2023-11-21T07:46:42;5.60;99.90
8563;DHT22;16392;52.508;13.468;2023-11-21T07:49:09;5.60;99.90
8563;DHT22;16392;52.508;13.468;2023-11-21T07:51:37;5.50;99.90
8563;DHT22;16392;52.508;13.468;2023-11-21T07:54:04;5.50;99.90
8563;DHT22;16392;52.508;13.468;2023-11-21T07:56:31;5.50;99.90
8563;DHT22;16392;52.508;13.468;2023-11-21T07:58:59;5.50;99.90
8563;DHT22;16392;52.508;13.468;2023-11-21T08:01:25;5.40;99.90
8563;DHT22;16392;52.508;13.468;2023-11-21T08:03:53;5.50;99.90
8563;DHT22;16392;52.508;13.468;2023-11-21T08:06:22;5.50;99.90
8563;DHT22;16392;52.508;13.468;2023-11-21T08:08:52;5.40;99.90
8563;DHT22;16392;52.508;13.468;2023-11-21T08:11:18;5.40;99.90
8563;DHT22;16392;52.508;13.468;2023-11-21T08:13:56;5.40;99.90
8563;DHT22;16392;52.508;13.468;2023-11-21T08:16:22;5.40;99.90
8563;DHT22;16392;52.508;13.468;2023-11-21T08:18:50;5.40;99.90
8563;DHT22;16392;52.508;13.468;2023-11-21T08:21:17;5.40;99.90
8563;DHT22;16392;52.508;13.468;2023-11-21T08:23:44;5.30;99.90
8563;DHT22;16392;52.508;13.468;2023-11-21T08:26:12;5.30;99.90
8563;DHT22;16392;52.508;13.468;2023-11-21T08:28:39;5.30;99.90
8563;DHT22;16392;52.508;13.468;2023-11-21T08:31:05;5.40;99.90
8563;DHT22;16392;52.508;13.468;2023-11-21T08:33:32;5.30;99.90
8563;DHT22;16392;52.508;13.468;2023-11-21T08:36:00;5.40;99.90
8563;DHT22;16392;52.508;13.468;2023-11-21T08:38:27;5.40;99.90
8563;DHT22;16392;52.508;13.468;2023-11-21T08:40:54;5.40;99.90
8563;DHT22;16392;52.508;13.468;2023-11-21T08:43:22;5.50;99.90
8563;DHT22;16392;52.508;13.468;2023-11-21T08:45:50;5.40;99.90
8563;DHT22;16392;52.508;13.468;2023-11-21T08:48:20;5.40;99.90
8563;DHT22;16392;52.508;13.468;2023-11-21T08:50:47;5.50;99.90
8563;DHT22;16392;52.508;13.468;2023-11-21T08:53:14;5.50;99.90
8563;DHT22;16392;52.508;13.468;2023-11-21T08:55:43;5.50;99.90
8563;DHT22;16392;52.508;13.468;2023-11-21T08:58:09;5.50;99.90
8563;DHT22;16392;52.508;13.468;2023-11-21T09:00:39;5.50;99.90
8563;DHT22;16392;52.508;13.468;2023-11-21T09:03:06;5.40;99.90
8563;DHT22;16392;52.508;13.468;2023-11-21T09:05:34;5.40;99.90
8563;DHT22;16392;52.508;13.468;2023-11-21T09:08:00;5.40;99.90
8563;DHT22;16392;52.508;13.468;2023-11-21T09:10:27;5.50;99.90
8563;DHT22;16392;52.508;13.468;2023-11-21T09:12:54;5.50;99.90
8563;DHT22;16392;52.508;13.468;2023-11-21T09:15:20;5.50;99.90
8563;DHT22;16392;52.508;13.468;2023-11-21T09:17:49;5.50;99.90
8563;DHT22;16392;52.508;13.468;2023-11-21T09:20:17;5.40;99.90
8563;DHT22;16392;52.508;13.468;2023-11-21T09:22:43;5.40;99.90
8563;DHT22;16392;52.508;13.468;2023-11-21T09:25:11;5.40;99.90
8563;DHT22;16392;52.508;13.468;2023-11-21T09:27:38;5.40;99.90
8563;DHT22;16392;52.508;13.468;2023-11-21T09:30:06;5.30;99.90
8563;DHT22;16392;52.508;13.468;2023-11-21T09:32:35;5.20;99.90
8563;DHT22;16392;52.508;13.468;2023-11-21T09:35:04;5.30;99.90
8563;DHT22;16392;52.508;13.468;2023-11-21T09:37:33;5.20;99.90
8563;DHT22;16392;52.508;13.468;2023-11-21T09:40:01;5.20;99.90
8563;DHT22;16392;52.508;13.468;2023-11-21T09:42:32;5.30;99.90
8563;DHT22;16392;52.508;13.468;2023-11-21T09:45:05;5.40;99.90
8563;DHT22;16392;52.508;13.468;2023-11-21T09:47:35;5.50;99.90
8563;DHT22;16392;52.508;13.468;2023-11-21T09:50:09;5.60;99.90
8563;DHT22;16392;52.508;13.468;2023-11-21T09:52:42;5.60;99.90
8563;DHT22;16392;52.508;13.468;2023-11-21T09:55:13;5.60;99.90
8563;DHT22;16392;52.508;13.468;2023-11-21T09:57:45;5.50;99.90
8563;DHT22;16392;52.508;13.468;2023-11-21T10:00:14;5.60;99.90
8563;DHT22;16392;52.508;13.468;2023-11-21T10:02:44;5.60;99.90
8563;DHT22;16392;52.508;13.468;2023-11-21T10:05:13;5.60;99.90
8563;DHT22;16392;52.508;13.468;2023-11-21T10:07:42;5.60;99.90
8563;DHT22;16392;52.508;13.468;2023-11-21T10:10:10;5.60;99.90
8563;DHT22;16392;52.508;13.468;2023-11-21T10:12:37;5.60;99.90
8563;DHT22;16392;52.508;13.468;2023-11-21T10:15:08;5.50;99.90
8563;DHT22;16392;52.508;13.468;2023-11-21T10:17:38;5.50;99.90
8563;DHT22;16392;52.508;13.468;2023-11-21T10:20:10;5.50;99.90
8563;DHT22;16392;52.508;13.468;2023-11-21T10:22:42;5.40;99.90
8563;DHT22;16392;52.508;13.468;2023-11-21T10:25:09;5.40;99.90
8563;DHT22;16392;52.508;13.468;2023-11-21T10:27:38;5.40;99.90
8563;DHT22;16392;52.508;13.468;2023-11-21T10:30:06;5.50;99.90
8563;DHT22;16392;52.508;13.468;2023-11-21T10:32:34;5.50;99.90
8563;DHT22;16392;52.508;13.468;2023-11-21T10:35:00;5.40;99.90
8563;DHT22;16392;52.508;13.468;2023-11-21T10:37:32;5.40;99.90
8563;DHT22;16392;52.508;13.468;2023-11-21T10:40:00;5.30;99.90
8563;DHT22;16392;52.508;13.468;2023-11-21T10:42:26;5.30;99.90
8563;DHT22;16392;52.508;13.468;2023-11-21T10:44:54;5.20;99.90
8563;DHT22;16392;52.508;13.468;2023-11-21T10:47:21;5.20;99.90
8563;DHT22;16392;52.508;13.468;2023-11-21T10:49:49;5.10;99.90
8563;DHT22;16392;52.508;13.468;2023-11-21T10:52:18;5.20;99.90
8563;DHT22;16392;52.508;13.468;2023-11-21T10:54:46;5.20;99.90
8563;DHT22;16392;52.508;13.468;2023-11-21T10:57:18;5.10;99.90
8563;DHT22;16392;52.508;13.468;2023-11-21T10:59:47;5.30;99.90
8563;DHT22;16392;52.508;13.468;2023-11-21T11:02:21;5.30;99.90
8563;DHT22;16392;52.508;13.468;2023-11-21T11:04:51;5.20;99.90
8563;DHT22;16392;52.508;13.468;2023-11-21T11:07:20;5.10;99.90
8563;DHT22;16392;52.508;13.468;2023-11-21T11:09:47;5.20;99.90
8563;DHT22;16392;52.508;13.468;2023-11-21T11:12:16;5.00;99.90
8563;DHT22;16392;52.508;13.468;2023-11-21T11:14:44;5.00;99.90
8563;DHT22;16392;52.508;13.468;2023-11-21T11:17:11;5.00;99.90
8563;DHT22;16392;52.508;13.468;2023-11-21T11:19:39;5.00;99.90
8563;DHT22;16392;52.508;13.468;2023-11-21T11:22:16;5.00;99.90
8563;DHT22;16392;52.508;13.468;2023-11-21T11:25:03;5.00;99.90
8563;DHT22;16392;52.508;13.468;2023-11-21T11:27:47;4.90;99.90
8563;DHT22;16392;52.508;13.468;2023-11-21T11:30:23;4.90;99.90
8563;DHT22;16392;52.508;13.468;2023-11-21T11:33:01;4.90;99.90
8563;DHT22;16392;52.508;13.468;2023-11-21T11:35:36;4.90;99.90
8563;DHT22;16392;52.508;13.468;2023-11-21T11:38:07;4.80;99.90
8563;DHT22;16392;52.508;13.468;2023-11-21T11:40:46;4.70;99.90
8563;DHT22;16392;52.508;13.468;2023-11-21T11:43:25;4.70;99.90
8563;DHT22;16392;52.508;13.468;2023-11-21T11:45:52;4.70;99.90
8563;DHT22;16392;52.508;13.468;2023-11-21T11:48:22;4.80;99.90
8563;DHT22;16392;52.508;13.468;2023-11-21T11:51:02;4.80;99.90
8563;DHT22;16392;52.508;13.468;2023-11-21T11:53:35;4.80;99.90
8563;DHT22;16392;52.508;13.468;2023-11-21T11:56:26;4.80;99.90
8563;DHT22;16392;52.508;13.468;2023-11-21T11:58:56;4.80;99.90
8563;DHT22;16392;52.508;13.468;2023-11-21T12:01:25;4.80;99.90
8563;DHT22;16392;52.508;13.468;2023-11-21T12:04:23;4.80;99.90
8563;DHT22;16392;52.508;13.468;2023-11-21T12:06:59;4.80;99.90
8563;DHT22;16392;52.508;13.468;2023-11-21T12:09:28;4.90;99.90
8563;DHT22;16392;52.508;13.468;2023-11-21T12:11:57;4.90;99.90
8563;DHT22;16392;52.508;13.468;2023-11-21T12:14:26;4.80;99.90
8563;DHT22;16392;52.508;13.468;2023-11-21T12:16:53;4.90;99.90
8563;DHT22;16392;52.508;13.468;2023-11-21T12:19:20;4.80;99.90
8563;DHT22;16392;52.508;13.468;2023-11-21T12:21:48;4.80;99.90
8563;DHT22;16392;52.508;13.468;2023-11-21T12:24:16;4.80;99.90
8563;DHT22;16392;52.508;13.468;2023-11-21T12:26:43;4.80;99.90
8563;DHT22;16392;52.508;13.468;2023-11-21T12:29:11;4.80;99.90
8563;DHT22;16392;52.508;13.468;2023-11-21T12:31:40;4.80;99.90
8563;DHT22;16392;52.508;13.468;2023-11-21T12:34:07;4.70;99.90
8563;DHT22;16392;52.508;13.468;2023-11-21T12:36:37;4.60;99.90
8563;DHT22;16392;52.508;13.468;2023-11-21T12:39:04;4.70;99.90
8563;DHT22;16392;52.508;13.468;2023-11-21T12:41:31;4.60;99.90
8563;DHT22;16392;52.508;13.468;2023-11-21T12:43:58;4.50;99.90
8563;DHT22;16392;52.508;13.468;2023-11-21T12:46:25;4.40;99.90
8563;DHT22;16392;52.508;13.468;2023-11-21T12:48:56;4.50;99.90
8563;DHT22;16392;52.508;13.468;2023-11-21T12:51:23;4.60;99.90
8563;DHT22;16392;52.508;13.468;2023-11-21T12:53:50;4.60;99.90
8563;DHT22;16392;52.508;13.468;2023-11-21T12:56:18;4.60;99.90
8563;DHT22;16392;52.508;13.468;2023-11-21T12:58:48;4.70;99.90
8563;DHT22;16392;52.508;13.468;2023-11-21T13:01:17;4.60;99.90
8563;DHT22;16392;52.508;13.468;2023-11-21T13:03:46;4.40;99.90
8563;DHT22;16392;52.508;13.468;2023-11-21T13:06:15;4.40;99.90
8563;DHT22;16392;52.508;13.468;2023-11-21T13:08:44;4.30;99.90
8563;DHT22;16392;52.508;13.468;2023-11-21T13:11:11;4.50;99.90
8563;DHT22;16392;52.508;13.468;2023-11-21T13:13:40;4.50;99.90
8563;DHT22;16392;52.508;13.468;2023-11-21T13:16:08;4.50;99.90
8563;DHT22;16392;52.508;13.468;2023-11-21T13:18:35;4.40;99.90
8563;DHT22;16392;52.508;13.468;2023-11-21T13:21:04;4.40;99.90
8563;DHT22;16392;52.508;13.468;2023-11-21T13:23:37;4.30;99.90
8563;DHT22;16392;52.508;13.468;2023-11-21T13:26:04;4.30;99.90
8563;DHT22;16392;52.508;13.468;2023-11-21T13:28:31;4.20;99.90
8563;DHT22;16392;52.508;13.468;2023-11-21T13:30:59;4.20;99.90
8563;DHT22;16392;52.508;13.468;2023-11-21T13:33:28;4.20;99.90
8563;DHT22;16392;52.508;13.468;2023-11-21T13:35:55;4.10;99.90
8563;DHT22;16392;52.508;13.468;2023-11-21T13:38:23;4.10;99.90
8563;DHT22;16392;52.508;13.468;2023-11-21T13:40:52;4.10;99.90
8563;DHT22;16392;52.508;13.468;2023-11-21T13:43:21;4.00;99.90
8563;DHT22;16392;52.508;13.468;2023-11-21T13:45:50;4.00;99.90
8563;DHT22;16392;52.508;13.468;2023-11-21T13:48:21;4.00;99.90
8563;DHT22;16392;52.508;13.468;2023-11-21T13:50:54;4.10;99.90
8563;DHT22;16392;52.508;13.468;2023-11-21T13:53:24;4.10;99.90
8563;DHT22;16392;52.508;13.468;2023-11-21T13:55:53;4.00;99.90
8563;DHT22;16392;52.508;13.468;2023-11-21T13:58:21;4.00;99.90
8563;DHT22;16392;52.508;13.468;2023-11-21T14:00:51;4.00;99.90
8563;DHT22;16392;52.508;13.468;2023-11-21T14:03:22;4.00;99.90
8563;DHT22;16392;52.508;13.468;2023-11-21T14:05:57;4.00;99.90
8563;DHT22;16392;52.508;13.468;2023-11-21T14:08:26;4.00;99.90
8563;DHT22;16392;52.508;13.468;2023-11-21T14:10:55;3.90;99.90
8563;DHT22;16392;52.508;13.468;2023-11-21T14:13:23;3.80;99.90
8563;DHT22;16392;52.508;13.468;2023-11-21T14:15:50;3.80;99.90
8563;DHT22;16392;52.508;13.468;2023-11-21T14:18:19;3.80;99.90
8563;DHT22;16392;52.508;13.468;2023-11-21T14:20:53;3.80;99.90
8563;DHT22;16392;52.508;13.468;2023-11-21T14:23:20;3.70;99.90
8563;DHT22;16392;52.508;13.468;2023-11-21T14:25:49;3.70;99.90
8563;DHT22;16392;52.508;13.468;2023-11-21T14:28:17;3.60;99.90
8563;DHT22;16392;52.508;13.468;2023-11-21T14:30:44;3.50;99.90
8563;DHT22;16392;52.508;13.468;2023-11-21T14:33:12;3.50;99.90
8563;DHT22;16392;52.508;13.468;2023-11-21T14:35:38;3.50;99.90
8563;DHT22;16392;52.508;13.468;2023-11-21T14:38:05;3.50;99.90
8563;DHT22;16392;52.508;13.468;2023-11-21T14:40:32;3.40;99.90
8563;DHT22;16392;52.508;13.468;2023-11-21T14:43:01;3.40;99.90
8563;DHT22;16392;52.508;13.468;2023-11-21T14:45:29;3.30;99.90
8563;DHT22;16392;52.508;13.468;2023-11-21T14:47:56;3.30;99.90
8563;DHT22;16392;52.508;13.468;2023-11-21T14:50:32;3.20;99.90
8563;DHT22;16392;52.508;13.468;2023-11-21T14:53:15;3.20;99.90
8563;DHT22;16392;52.508;13.468;2023-11-21T14:55:56;3.20;99.90
8563;DHT22;16392;52.508;13.468;2023-11-21T14:58:24;3.20;99.90
8563;DHT22;16392;52.508;13.468;2023-11-21T15:00:55;3.10;99.90
8563;DHT22;16392;52.508;13.468;2023-11-21T15:03:24;3.10;99.90
8563;DHT22;16392;52.508;13.468;2023-11-21T15:06:09;3.10;99.90
8563;DHT22;16392;52.508;13.468;2023-11-21T15:08:56;3.10;99.90
8563;DHT22;16392;52.508;13.468;2023-11-21T15:11:41;3.10;99.90
8563;DHT22;16392;52.508;13.468;2023-11-21T15:14:08;3.10;99.90
8563;DHT22;16392;52.508;13.468;2023-11-21T15:16:36;3.10;99.90
8563;DHT22;16392;52.508;13.468;2023-11-21T15:19:05;3.10;99.90
8563;DHT22;16392;52.508;13.468;2023-11-21T15:21:32;3.10;99.90
8563;DHT22;16392;52.508;13.468;2023-11-21T15:23:59;3.10;99.90
8563;DHT22;16392;52.508;13.468;2023-11-21T15:26:25;3.10;99.90
8563;DHT22;16392;52.508;13.468;2023-11-21T15:28:52;3.20;99.90
8563;DHT22;16392;52.508;13.468;2023-11-21T15:31:19;3.10;99.90
8563;DHT22;16392;52.508;13.468;2023-11-21T15:33:51;3.10;99.90
8563;DHT22;16392;52.508;13.468;2023-11-21T15:36:18;3.10;99.90
8563;DHT22;16392;52.508;13.468;2023-11-21T15:38:45;3.10;99.90
8563;DHT22;16392;52.508;13.468;2023-11-21T15:41:12;3.20;99.90
8563;DHT22;16392;52.508;13.468;2023-11-21T15:43:38;3.20;99.90
8563;DHT22;16392;52.508;13.468;2023-11-21T15:46:05;3.20;99.90
8563;DHT22;16392;52.508;13.468;2023-11-21T15:48:33;3.10;99.90
8563;DHT22;16392;52.508;13.468;2023-11-21T15:51:02;3.10;99.90